createdAt,value
2018-05-13T21:57:19.045Z,14.33
2018-05-13T21:59:46.979Z,14.36
2018-05-13T22:02:14.514Z,14.28
2018-05-13T22:04:53.771Z,14.33
2018-05-13T22:07:21.369Z,14.26
2018-05-13T22:09:48.874Z,14.33
2018-05-13T22:12:16.414Z,14.21
2018-05-13T22:14:43.987Z,14.23
2018-05-13T22:17:11.528Z,14.24
2018-05-13T22:19:39.065Z,14.23
2018-05-13T22:22:06.598Z,14.25
2018-05-13T22:24:34.125Z,14.27
2018-05-13T22:27:01.697Z,14.31
2018-05-13T22:29:29.226Z,14.25
2018-05-13T22:31:56.759Z,14.31
2018-05-13T22:34:24.333Z,14.30
2018-05-13T22:36:51.920Z,14.45
2018-05-13T22:39:19.455Z,14.48
2018-05-13T22:41:46.980Z,14.53
2018-05-13T22:44:14.551Z,14.47
2018-05-13T22:46:42.068Z,14.38
2018-05-13T22:49:09.645Z,14.31
2018-05-13T22:51:37.161Z,14.14
2018-05-13T22:54:04.698Z,14.19
2018-05-13T22:56:32.222Z,13.89
2018-05-13T22:58:59.764Z,13.73
2018-05-13T23:01:27.290Z,13.61
2018-05-13T23:03:54.980Z,13.63
2018-05-13T23:06:22.510Z,13.67
2018-05-13T23:08:50.048Z,13.77
2018-05-13T23:11:17.585Z,13.77
2018-05-13T23:13:45.149Z,13.63
2018-05-13T23:16:12.683Z,13.56
2018-05-13T23:18:40.208Z,13.55
2018-05-13T23:21:07.782Z,13.58
2018-05-13T23:23:35.354Z,13.68
2018-05-13T23:26:02.952Z,13.66
2018-05-13T23:28:30.554Z,13.57
2018-05-13T23:30:58.083Z,13.58
2018-05-13T23:33:25.620Z,13.67
2018-05-13T23:35:53.167Z,13.69
2018-05-13T23:38:20.694Z,13.83
2018-05-13T23:40:48.236Z,14.05
2018-05-13T23:43:15.762Z,14.15
2018-05-13T23:45:43.295Z,14.18
2018-05-13T23:48:10.858Z,14.18
2018-05-13T23:50:38.396Z,14.34
2018-05-13T23:53:05.939Z,14.36
2018-05-13T23:55:33.482Z,14.39
2018-05-13T23:58:01.012Z,14.47
